createdAt,value
2019-02-09T00:02:11.929Z,95.12
2019-02-09T00:04:42.540Z,95.81
2019-02-09T00:07:13.328Z,96.78
2019-02-09T00:09:44.348Z,97.45
2019-02-09T00:12:15.347Z,98.90
2019-02-09T00:14:46.380Z,98.07
2019-02-09T00:17:17.317Z,99.80
2019-02-09T00:19:49.080Z,99.77
2019-02-09T00:22:19.787Z,100.00
2019-02-09T00:24:50.719Z,100.00
2019-02-09T00:27:21.381Z,100.00
2019-02-09T00:29:52.061Z,100.00
2019-02-09T00:32:23.120Z,100.00
2019-02-09T00:34:54.128Z,100.00
2019-02-09T00:37:24.816Z,100.00
2019-02-09T00:39:55.883Z,100.00
2019-02-09T00:42:26.629Z,100.00
2019-02-09T00:44:57.480Z,100.00
2019-02-09T00:47:28.065Z,100.00
2019-02-09T00:49:58.687Z,100.00
2019-02-09T00:52:29.679Z,100.00
2019-02-09T00:55:00.346Z,100.00
2019-02-09T00:57:31.222Z,100.00
2019-02-09T01:00:01.911Z,100.00
2019-02-09T01:02:32.628Z,100.00
2019-02-09T01:05:03.301Z,100.00
2019-02-09T01:07:34.070Z,100.00
2019-02-09T01:10:07.079Z,100.00
2019-02-09T01:12:37.793Z,100.00
2019-02-09T01:15:12.742Z,100.00
2019-02-09T01:17:43.488Z,100.00
2019-02-09T01:20:21.248Z,100.00
2019-02-09T01:22:52.371Z,100.00
2019-02-09T01:25:23.287Z,100.00
2019-02-09T01:27:54.074Z,100.00
2019-02-09T01:30:26.967Z,100.00
2019-02-09T01:32:57.948Z,100.00
2019-02-09T01:35:28.770Z,100.00
2019-02-09T01:37:59.703Z,100.00
2019-02-09T01:40:30.943Z,100.00
2019-02-09T01:43:01.913Z,100.00
2019-02-09T01:45:33.149Z,100.00
2019-02-09T01:48:04.737Z,100.00
2019-02-09T01:50:35.748Z,100.00
2019-02-09T01:53:06.869Z,100.00
2019-02-09T01:55:37.737Z,100.00
2019-02-09T01:58:08.791Z,100.00
2019-02-09T02:00:39.991Z,100.00
2019-02-09T02:03:10.848Z,100.00
2019-02-09T02:05:41.762Z,100.00
2019-02-09T02:08:14.954Z,100.00
2019-02-09T02:10:46.197Z,100.00
2019-02-09T02:13:16.723Z,100.00
2019-02-09T02:15:47.330Z,100.00
2019-02-09T02:18:18.125Z,100.00
2019-02-09T02:20:48.975Z,100.00
2019-02-09T02:23:19.750Z,100.00
2019-02-09T02:25:50.333Z,100.00
2019-02-09T02:28:20.930Z,100.00
2019-02-09T02:30:51.709Z,100.00
2019-02-09T02:33:22.757Z,100.00
2019-02-09T02:35:53.316Z,100.00
2019-02-09T02:38:24.308Z,100.00
2019-02-09T02:40:54.885Z,100.00
2019-02-09T02:43:25.456Z,100.00
2019-02-09T02:45:56.176Z,100.00
2019-02-09T02:48:26.866Z,99.95
2019-02-09T02:50:57.433Z,98.01
2019-02-09T02:53:28.095Z,98.08
2019-02-09T02:55:58.630Z,98.25
2019-02-09T02:58:29.254Z,97.91
2019-02-09T03:01:00.119Z,96.68
2019-02-09T03:03:30.863Z,96.56
2019-02-09T03:06:01.685Z,96.89
2019-02-09T03:08:32.375Z,95.23
2019-02-09T03:11:03.311Z,95.10
2019-02-09T03:13:33.888Z,94.70
2019-02-09T03:16:04.656Z,95.04
2019-02-09T03:18:35.442Z,95.04
2019-02-09T03:21:06.019Z,95.07
2019-02-09T03:23:36.550Z,94.51
2019-02-09T03:26:07.251Z,92.57
2019-02-09T03:28:38.241Z,93.86
2019-02-09T03:31:08.976Z,92.24
2019-02-09T03:33:39.532Z,92.53
2019-02-09T03:36:10.082Z,92.21
2019-02-09T03:38:40.963Z,91.53
2019-02-09T03:41:11.482Z,90.96
2019-02-09T03:43:42.008Z,90.91
2019-02-09T03:46:12.809Z,90.03
2019-02-09T03:48:43.353Z,90.12
2019-02-09T03:51:13.857Z,90.93
2019-02-09T03:53:44.420Z,91.21
2019-02-09T03:56:15.223Z,91.23
2019-02-09T03:58:45.890Z,91.20
2019-02-09T04:01:16.503Z,90.71
2019-02-09T04:03:47.373Z,90.87
2019-02-09T04:06:18.171Z,91.11
2019-02-09T04:08:49.071Z,90.59
2019-02-09T04:11:19.619Z,91.17
2019-02-09T04:13:50.156Z,90.57
2019-02-09T04:16:21.089Z,89.56
2019-02-09T04:18:51.690Z,88.39
2019-02-09T04:21:22.266Z,88.44
2019-02-09T04:23:52.918Z,88.12
2019-02-09T04:26:23.744Z,89.10
2019-02-09T04:28:54.627Z,89.14
2019-02-09T04:31:25.279Z,88.68
2019-02-09T04:33:55.840Z,88.72
2019-02-09T04:36:26.463Z,89.39
2019-02-09T04:38:57.058Z,90.03
2019-02-09T04:41:27.586Z,90.73
2019-02-09T04:43:58.472Z,91.27
2019-02-09T04:46:29.074Z,91.97
2019-02-09T04:48:59.658Z,92.05
2019-02-09T04:51:30.209Z,92.23
2019-02-09T04:54:01.026Z,92.55
2019-02-09T04:56:31.856Z,92.10
2019-02-09T04:59:02.397Z,92.85
2019-02-09T05:01:32.936Z,92.93
2019-02-09T05:04:03.792Z,93.04
2019-02-09T05:06:34.308Z,93.03
2019-02-09T05:09:07.092Z,92.85
2019-02-09T05:11:37.987Z,93.02
2019-02-09T05:14:08.527Z,93.08
2019-02-09T05:16:39.390Z,92.33
2019-02-09T05:19:10.426Z,91.57
2019-02-09T05:21:41.235Z,91.62
2019-02-09T05:24:11.859Z,91.44
2019-02-09T05:26:42.386Z,91.28
2019-02-09T05:29:12.904Z,91.16
2019-02-09T05:31:43.463Z,91.43
2019-02-09T05:34:14.277Z,90.82
2019-02-09T05:36:45.051Z,90.87
2019-02-09T05:39:15.746Z,90.72
2019-02-09T05:41:46.282Z,89.73
2019-02-09T05:44:17.083Z,90.03
2019-02-09T05:46:47.716Z,89.83
2019-02-09T05:49:18.244Z,89.90
2019-02-09T05:51:48.769Z,89.32
2019-02-09T05:54:19.426Z,88.74
2019-02-09T05:56:51.019Z,88.90
2019-02-09T05:59:21.604Z,89.16
2019-02-09T06:01:52.132Z,89.49
2019-02-09T06:04:23.142Z,89.60
2019-02-09T06:06:54.175Z,89.42
2019-02-09T06:09:24.980Z,89.49
2019-02-09T06:11:55.616Z,89.62
2019-02-09T06:14:26.204Z,89.71
2019-02-09T06:16:56.771Z,90.10
2019-02-09T06:19:27.961Z,89.50
2019-02-09T06:21:58.494Z,89.90
2019-02-09T06:24:29.072Z,89.78
2019-02-09T06:26:59.872Z,90.03
2019-02-09T06:29:30.540Z,89.49
2019-02-09T06:32:01.095Z,89.84
2019-02-09T06:34:31.621Z,89.94
2019-02-09T06:37:02.595Z,90.69
2019-02-09T06:39:33.209Z,90.81
2019-02-09T06:42:03.745Z,90.56
2019-02-09T06:44:34.447Z,91.07
2019-02-09T06:47:04.984Z,91.32
2019-02-09T06:49:35.534Z,90.65
2019-02-09T06:52:06.164Z,89.92
2019-02-09T06:54:36.724Z,91.62
2019-02-09T06:57:07.395Z,95.48
2019-02-09T06:59:38.171Z,99.20
2019-02-09T07:02:09.161Z,96.65
2019-02-09T07:04:39.732Z,98.04
2019-02-09T07:07:10.245Z,98.34
2019-02-09T07:09:40.793Z,97.03
2019-02-09T07:12:11.346Z,96.38
2019-02-09T07:14:41.938Z,96.49
2019-02-09T07:17:12.687Z,96.19
2019-02-09T07:19:43.604Z,95.76
2019-02-09T07:22:14.258Z,96.70
2019-02-09T07:24:44.987Z,97.63
2019-02-09T07:27:15.525Z,98.78
2019-02-09T07:29:46.047Z,96.86
2019-02-09T07:32:16.553Z,96.72
2019-02-09T07:34:47.121Z,98.04
2019-02-09T07:37:17.662Z,98.37
2019-02-09T07:39:48.983Z,100.00
2019-02-09T07:42:19.556Z,100.00
2019-02-09T07:44:50.882Z,99.05
2019-02-09T07:47:21.695Z,95.88
2019-02-09T07:49:52.202Z,97.62
2019-02-09T07:52:22.759Z,99.69
2019-02-09T07:54:53.586Z,99.92
2019-02-09T07:57:24.371Z,100.00
2019-02-09T07:59:55.242Z,99.44
2019-02-09T08:02:25.772Z,100.00
2019-02-09T08:04:56.588Z,100.00
2019-02-09T08:07:27.476Z,99.72
2019-02-09T08:09:58.274Z,97.39
2019-02-09T08:12:28.753Z,92.77
2019-02-09T08:14:59.286Z,90.75
2019-02-09T08:17:29.765Z,87.19
2019-02-09T08:20:00.375Z,84.08
2019-02-09T08:22:30.938Z,84.71
2019-02-09T08:25:01.470Z,82.65
2019-02-09T08:27:31.973Z,78.72
2019-02-09T08:30:02.989Z,77.91
2019-02-09T08:32:34.639Z,78.52
2019-02-09T08:35:07.017Z,77.24
2019-02-09T08:37:37.865Z,76.66
2019-02-09T08:40:09.892Z,76.70
2019-02-09T08:42:40.408Z,76.17
2019-02-09T08:45:18.402Z,74.78
2019-02-09T08:47:49.041Z,72.79
2019-02-09T08:50:31.899Z,74.51
2019-02-09T08:53:02.783Z,73.44
2019-02-09T08:55:33.728Z,73.22
2019-02-09T08:58:04.932Z,72.85
2019-02-09T09:00:39.588Z,71.99
2019-02-09T09:03:10.701Z,70.87
2019-02-09T09:05:42.916Z,72.40
2019-02-09T09:08:13.543Z,74.22
2019-02-09T09:10:44.188Z,73.21
2019-02-09T09:13:14.870Z,71.83
2019-02-09T09:15:49.544Z,71.37
2019-02-09T09:18:22.923Z,69.46
2019-02-09T09:20:57.472Z,67.61
2019-02-09T09:23:28.103Z,69.15
2019-02-09T09:25:58.684Z,68.03
2019-02-09T09:28:29.265Z,67.09
2019-02-09T09:31:00.078Z,67.32
2019-02-09T09:33:30.950Z,67.94
2019-02-09T09:36:01.683Z,69.29
2019-02-09T09:38:32.505Z,70.27
2019-02-09T09:41:03.498Z,71.44
2019-02-09T09:43:34.283Z,71.49
2019-02-09T09:46:05.213Z,72.94
2019-02-09T09:48:35.761Z,73.29
2019-02-09T09:51:06.430Z,73.16
2019-02-09T09:53:37.229Z,72.64
2019-02-09T09:56:08.417Z,70.85
2019-02-09T09:58:41.881Z,68.12
2019-02-09T10:01:12.840Z,67.90
2019-02-09T10:03:43.450Z,68.58
2019-02-09T10:06:14.353Z,67.97
2019-02-09T10:08:45.222Z,67.15
2019-02-09T10:11:15.933Z,66.62
2019-02-09T10:13:46.564Z,65.57
2019-02-09T10:16:17.097Z,65.97
2019-02-09T10:18:48.133Z,65.81
2019-02-09T10:21:18.898Z,64.60
2019-02-09T10:23:49.418Z,64.82
2019-02-09T10:26:19.937Z,66.62
2019-02-09T10:28:50.525Z,68.42
2019-02-09T10:31:21.540Z,69.82
2019-02-09T10:33:52.046Z,70.02
2019-02-09T10:36:22.602Z,70.58
2019-02-09T10:38:53.100Z,69.88
2019-02-09T10:41:23.751Z,68.40
2019-02-09T10:43:54.395Z,68.58
2019-02-09T10:46:24.966Z,68.00
2019-02-09T10:48:55.578Z,68.98
2019-02-09T10:51:26.175Z,68.65
2019-02-09T10:53:57.190Z,68.36
2019-02-09T10:56:28.637Z,66.72
2019-02-09T10:58:59.583Z,67.58
2019-02-09T11:01:30.101Z,68.53
2019-02-09T11:04:00.769Z,68.96
2019-02-09T11:06:31.465Z,69.60
2019-02-09T11:09:02.037Z,69.14
2019-02-09T11:11:32.840Z,69.50
2019-02-09T11:14:14.058Z,69.13
2019-02-09T11:16:42.151Z,68.46
2019-02-09T11:19:13.585Z,69.04
2019-02-09T11:22:03.179Z,66.30
2019-02-09T11:24:33.998Z,65.42
2019-02-09T11:27:04.742Z,66.38
2019-02-09T11:29:35.600Z,66.62
2019-02-09T11:32:06.347Z,66.81
2019-02-09T11:34:36.929Z,66.07
2019-02-09T11:37:08.084Z,64.49
2019-02-09T11:39:38.845Z,64.55
2019-02-09T11:42:09.563Z,62.33
2019-02-09T11:44:41.342Z,61.06
2019-02-09T11:47:12.096Z,59.71
2019-02-09T11:49:44.461Z,60.00
2019-02-09T11:52:15.342Z,59.31
2019-02-09T11:54:45.877Z,58.57
2019-02-09T11:57:16.518Z,58.53
2019-02-09T11:59:47.409Z,59.16
2019-02-09T12:02:18.090Z,59.73
2019-02-09T12:04:49.098Z,59.35
2019-02-09T12:07:20.160Z,59.95
2019-02-09T12:09:50.718Z,60.05
2019-02-09T12:12:21.601Z,60.16
2019-02-09T12:14:52.277Z,59.96
2019-02-09T12:17:23.075Z,59.58
2019-02-09T12:19:53.722Z,61.95
2019-02-09T12:22:24.706Z,65.54
2019-02-09T12:24:55.327Z,69.16
2019-02-09T12:27:26.358Z,70.41
2019-02-09T12:29:57.152Z,70.94
2019-02-09T12:32:27.785Z,68.28
2019-02-09T12:34:58.507Z,70.50
2019-02-09T12:37:29.190Z,77.31
2019-02-09T12:39:59.897Z,77.86
2019-02-09T12:42:30.488Z,81.07
2019-02-09T12:45:01.337Z,82.44
2019-02-09T12:47:32.334Z,82.38
2019-02-09T12:50:03.298Z,82.59
2019-02-09T12:52:35.257Z,82.31
2019-02-09T12:55:06.565Z,81.57
2019-02-09T12:57:37.191Z,80.50
2019-02-09T13:00:17.967Z,78.71
2019-02-09T13:02:48.707Z,77.06
2019-02-09T13:05:19.552Z,76.65
2019-02-09T13:07:50.562Z,75.67
2019-02-09T13:10:21.404Z,73.89
2019-02-09T13:12:51.936Z,71.90
2019-02-09T13:15:25.296Z,70.66
2019-02-09T13:17:56.138Z,69.46
2019-02-09T13:20:28.213Z,66.88
2019-02-09T13:22:59.369Z,66.33
2019-02-09T13:25:30.047Z,66.31
2019-02-09T13:28:00.864Z,66.53
2019-02-09T13:30:32.696Z,66.28
2019-02-09T13:33:03.431Z,65.32
2019-02-09T13:35:33.907Z,65.30
2019-02-09T13:38:05.177Z,64.40
2019-02-09T13:40:35.688Z,63.97
2019-02-09T13:43:06.619Z,62.87
2019-02-09T13:45:43.906Z,63.59
2019-02-09T13:48:14.417Z,63.70
2019-02-09T13:50:44.938Z,62.81
2019-02-09T13:53:15.445Z,63.35
2019-02-09T13:55:45.923Z,65.17
2019-02-09T13:58:16.449Z,66.69
2019-02-09T14:00:46.979Z,67.31
2019-02-09T14:03:17.471Z,69.35
2019-02-09T14:05:47.968Z,70.78
2019-02-09T14:08:18.598Z,72.94
2019-02-09T14:10:51.381Z,77.35
2019-02-09T14:13:27.006Z,81.94
2019-02-09T14:15:57.476Z,85.33
2019-02-09T14:18:28.424Z,87.72
2019-02-09T14:20:58.976Z,90.54
2019-02-09T14:23:29.671Z,93.81
2019-02-09T14:26:00.164Z,96.42
2019-02-09T14:28:31.422Z,97.37
2019-02-09T14:31:01.965Z,99.03
2019-02-09T14:33:32.542Z,98.49
2019-02-09T14:36:03.394Z,99.97
2019-02-09T14:38:34.480Z,99.52
2019-02-09T14:41:05.275Z,99.45
2019-02-09T14:43:35.839Z,98.94
2019-02-09T14:46:06.703Z,95.71
2019-02-09T14:48:37.301Z,95.88
2019-02-09T14:51:07.872Z,95.94
2019-02-09T14:53:38.508Z,94.78
2019-02-09T14:56:09.073Z,94.13
2019-02-09T14:58:39.918Z,94.33
2019-02-09T15:01:10.487Z,94.20
2019-02-09T15:03:41.070Z,93.38
2019-02-09T15:06:11.984Z,92.26
2019-02-09T15:08:42.885Z,91.84
2019-02-09T15:11:13.401Z,91.13
2019-02-09T15:13:44.236Z,89.56
2019-02-09T15:16:21.749Z,88.96
2019-02-09T15:18:52.419Z,88.08
2019-02-09T15:21:23.298Z,86.91
2019-02-09T15:23:53.886Z,86.88
2019-02-09T15:26:24.529Z,86.86
2019-02-09T15:28:55.107Z,86.25
2019-02-09T15:31:26.001Z,83.63
2019-02-09T15:33:56.890Z,83.05
2019-02-09T15:36:27.417Z,81.67
2019-02-09T15:38:58.054Z,80.17
2019-02-09T15:41:28.603Z,78.85
2019-02-09T15:43:59.239Z,78.66
2019-02-09T15:46:29.784Z,77.97
2019-02-09T15:49:00.528Z,78.35
2019-02-09T15:51:31.276Z,77.28
2019-02-09T15:54:01.939Z,76.42
2019-02-09T15:56:32.747Z,76.07
2019-02-09T15:59:03.684Z,75.93
2019-02-09T16:01:34.298Z,76.08
2019-02-09T16:04:05.332Z,75.96
2019-02-09T16:06:35.830Z,74.79
2019-02-09T16:09:09.616Z,74.69
2019-02-09T16:11:40.168Z,74.29
2019-02-09T16:14:10.717Z,74.57
2019-02-09T16:16:41.479Z,74.94
2019-02-09T16:19:11.983Z,74.98
2019-02-09T16:21:42.630Z,74.94
2019-02-09T16:24:13.138Z,74.62
2019-02-09T16:26:43.854Z,74.98
2019-02-09T16:29:14.800Z,74.17
2019-02-09T16:31:45.326Z,74.77
2019-02-09T16:34:15.794Z,74.46
2019-02-09T16:36:46.322Z,74.61
2019-02-09T16:39:17.049Z,74.37
2019-02-09T16:41:47.556Z,74.46
2019-02-09T16:44:18.040Z,75.00
2019-02-09T16:46:48.544Z,74.80
2019-02-09T16:49:19.106Z,74.17
2019-02-09T16:51:49.851Z,74.58
2019-02-09T16:54:20.516Z,74.57
2019-02-09T16:56:51.014Z,74.69
2019-02-09T16:59:21.482Z,75.25
2019-02-09T17:01:52.030Z,76.09
2019-02-09T17:04:22.513Z,76.79
2019-02-09T17:06:53.022Z,77.74
2019-02-09T17:09:23.531Z,78.58
2019-02-09T17:11:54.007Z,78.38
2019-02-09T17:14:24.795Z,77.61
2019-02-09T17:16:55.610Z,77.82
2019-02-09T17:19:26.387Z,77.35
2019-02-09T17:21:56.966Z,77.64
2019-02-09T17:24:27.801Z,77.19
2019-02-09T17:26:58.683Z,77.49
2019-02-09T17:29:29.294Z,78.03
2019-02-09T17:31:59.999Z,78.18
2019-02-09T17:34:30.544Z,76.70
2019-02-09T17:37:01.400Z,76.70
2019-02-09T17:39:32.310Z,77.16
2019-02-09T17:42:03.562Z,76.86
2019-02-09T17:44:34.105Z,77.03
2019-02-09T17:47:04.928Z,77.80
2019-02-09T17:49:35.457Z,77.76
2019-02-09T17:52:06.436Z,78.37
2019-02-09T17:54:37.556Z,76.28
2019-02-09T17:57:08.784Z,76.59
2019-02-09T17:59:39.644Z,75.57
2019-02-09T18:02:10.248Z,75.73
2019-02-09T18:04:48.318Z,76.18
2019-02-09T18:07:13.479Z,76.36
2019-02-09T18:09:44.677Z,76.61
2019-02-09T18:12:15.182Z,77.05
2019-02-09T18:14:45.950Z,77.41
2019-02-09T18:17:16.463Z,77.39
2019-02-09T18:19:47.012Z,77.82
2019-02-09T18:22:18.246Z,78.24
2019-02-09T18:24:49.304Z,78.84
2019-02-09T18:27:20.482Z,78.45
2019-02-09T18:29:51.054Z,78.62
2019-02-09T18:32:22.137Z,78.88
2019-02-09T18:34:56.072Z,78.58
2019-02-09T18:37:24.955Z,78.61
2019-02-09T18:39:55.767Z,78.75
2019-02-09T18:42:26.310Z,79.29
2019-02-09T18:44:56.898Z,79.25
2019-02-09T18:47:27.701Z,79.09
2019-02-09T18:49:58.501Z,78.77
2019-02-09T18:52:29.214Z,79.66
2019-02-09T18:55:00.333Z,79.88
2019-02-09T18:57:30.899Z,79.74
2019-02-09T19:00:01.784Z,79.83
2019-02-09T19:02:38.414Z,80.10
2019-02-09T19:05:05.333Z,79.93
2019-02-09T19:07:36.215Z,80.27
2019-02-09T19:10:10.769Z,80.49
2019-02-09T19:12:41.329Z,80.66
2019-02-09T19:15:12.561Z,81.13
2019-02-09T19:17:43.383Z,81.44
2019-02-09T19:20:20.877Z,82.04
2019-02-09T19:22:51.761Z,83.50
2019-02-09T19:25:22.992Z,82.29
2019-02-09T19:27:53.896Z,82.61
2019-02-09T19:30:26.108Z,82.04
2019-02-09T19:32:57.246Z,82.55
2019-02-09T19:35:27.763Z,81.98
2019-02-09T19:37:58.296Z,81.69
2019-02-09T19:40:28.912Z,82.37
2019-02-09T19:42:59.965Z,82.75
2019-02-09T19:45:32.680Z,82.16
2019-02-09T19:48:03.689Z,82.32
2019-02-09T19:50:34.479Z,82.55
2019-02-09T19:53:05.792Z,82.20
2019-02-09T19:55:37.366Z,82.78
2019-02-09T19:58:08.593Z,83.35
2019-02-09T20:00:42.661Z,83.29
2019-02-09T20:03:13.437Z,82.95
2019-02-09T20:05:44.322Z,83.28
2019-02-09T20:08:15.120Z,83.06
2019-02-09T20:10:46.435Z,83.52
2019-02-09T20:13:16.968Z,84.40
2019-02-09T20:15:47.978Z,83.42
2019-02-09T20:18:18.455Z,82.82
2019-02-09T20:20:49.014Z,82.96
2019-02-09T20:23:19.816Z,82.29
2019-02-09T20:25:50.429Z,82.53
2019-02-09T20:28:20.982Z,82.63
2019-02-09T20:30:51.520Z,82.20
2019-02-09T20:33:22.421Z,81.21
2019-02-09T20:35:52.917Z,81.15
2019-02-09T20:38:23.479Z,80.77
2019-02-09T20:41:02.185Z,80.83
2019-02-09T20:43:32.658Z,80.72
2019-02-09T20:46:03.491Z,80.55
2019-02-09T20:48:34.555Z,80.37
2019-02-09T20:51:05.563Z,80.09
2019-02-09T20:53:36.304Z,79.84
2019-02-09T20:56:07.368Z,79.98
2019-02-09T20:58:38.084Z,80.28
2019-02-09T21:01:08.831Z,79.91
2019-02-09T21:03:39.854Z,79.75
2019-02-09T21:06:11.383Z,79.54
2019-02-09T21:08:42.272Z,79.77
2019-02-09T21:11:12.963Z,79.48
2019-02-09T21:13:43.556Z,79.48
2019-02-09T21:16:14.346Z,79.54
2019-02-09T21:18:45.470Z,79.40
2019-02-09T21:21:16.720Z,79.20
2019-02-09T21:23:47.599Z,78.80
2019-02-09T21:26:18.376Z,78.82
2019-02-09T21:28:49.309Z,78.61
2019-02-09T21:31:19.934Z,78.73
2019-02-09T21:33:50.630Z,78.58
2019-02-09T21:36:22.192Z,78.65
2019-02-09T21:38:52.938Z,78.33
2019-02-09T21:41:23.597Z,78.35
2019-02-09T21:43:54.570Z,78.31
2019-02-09T21:46:25.407Z,78.72
2019-02-09T21:48:56.599Z,79.07
2019-02-09T21:51:27.496Z,79.06
2019-02-09T21:53:58.140Z,78.43
2019-02-09T21:56:29.483Z,78.94
2019-02-09T21:59:00.047Z,78.77
2019-02-09T22:01:31.751Z,79.46
2019-02-09T22:04:02.428Z,79.31
2019-02-09T22:06:32.984Z,79.04
2019-02-09T22:09:03.601Z,79.52
2019-02-09T22:11:34.165Z,79.63
2019-02-09T22:14:05.075Z,79.01
2019-02-09T22:16:36.899Z,79.12
2019-02-09T22:19:07.531Z,79.10
2019-02-09T22:21:38.167Z,79.66
2019-02-09T22:24:08.707Z,80.20
2019-02-09T22:26:39.409Z,79.18
2019-02-09T22:29:10.274Z,79.82
2019-02-09T22:31:41.047Z,79.24
2019-02-09T22:34:11.916Z,79.08
2019-02-09T22:36:42.518Z,79.17
2019-02-09T22:39:12.980Z,78.96
2019-02-09T22:41:48.949Z,79.34
2019-02-09T22:44:15.733Z,79.25
2019-02-09T22:46:46.296Z,79.62
2019-02-09T22:49:16.751Z,79.56
2019-02-09T22:51:47.577Z,79.77
2019-02-09T22:54:18.038Z,80.04
2019-02-09T22:56:48.631Z,80.07
2019-02-09T22:59:19.163Z,80.43
2019-02-09T23:01:53.435Z,80.33
2019-02-09T23:05:11.095Z,80.40
2019-02-09T23:07:42.612Z,80.85
2019-02-09T23:10:15.543Z,80.18
2019-02-09T23:12:48.654Z,81.02
2019-02-09T23:15:18.581Z,81.88
2019-02-09T23:17:49.206Z,80.50
2019-02-09T23:20:19.674Z,80.85
2019-02-09T23:22:50.156Z,80.98
2019-02-09T23:25:20.696Z,80.80
2019-02-09T23:27:51.356Z,80.78
2019-02-09T23:30:23.601Z,80.98
2019-02-09T23:32:54.310Z,80.83
2019-02-09T23:35:25.054Z,81.46
2019-02-09T23:37:55.819Z,81.27
2019-02-09T23:40:26.431Z,81.07
2019-02-09T23:42:56.986Z,81.35
2019-02-09T23:45:27.489Z,81.53
2019-02-09T23:47:58.034Z,81.38
2019-02-09T23:50:28.830Z,81.47
2019-02-09T23:52:59.569Z,81.34
2019-02-09T23:55:30.515Z,81.27
2019-02-09T23:58:01.539Z,81.20
